Search for airport 
image banner adimage banner adimage banner ad
image banner ad

16PN - Oakdale Ahp

Located in Oakdale, United States

ICAO - 16PN, IATA -

Data provided by Airmate  

General information

Coordinates: N40°23'18" W80°9'29"
Elevation is 1265 feet MSL.
Magnetic variation is -07° East
View others Airports in Pennsylvania

Operational data

Special qualification required
Current time UTC:
Current local time:
Weather at : KPIT - Pittsburgh Intl ( 13 km )
METAR: KPIT 071151Z 32009KT 7SM -RA FEW009 OVC042 06/04 A2989 RMK AO2 SLP132 P0000 60000 T00560039 10083 20056 53004
TAF: KPIT 071133Z 0712/0818 31005KT 6SM -SHRA OVC020 FM071400 30006KT 5SM -SHRA OVC010 TEMPO 0714/0716 OVC008 FM071800 31010KT P6SM -SHRA BKN020 FM072000 31008KT P6SM BKN040 FM080500 24003KT P6SM VCSH BKN025 FM080900 30008KT P6SM VCSH BKN015
View NOTAMs / SUP AIP / TFR affecting this airport [VIEW]
Communications frequencies: [VIEW]

Runways:

Airport contact information

Address: Oakdale United States

Satellite view of 16PN